createdAt,value
2019-06-01T00:01:22.860Z,3.10
2019-06-01T00:03:49.776Z,3.27
2019-06-01T00:06:16.167Z,3.20
2019-06-01T00:08:43.097Z,3.02
2019-06-01T00:11:09.522Z,3.08
2019-06-01T00:13:35.926Z,3.15
2019-06-01T00:16:02.310Z,3.05
2019-06-01T00:18:28.721Z,3.12
2019-06-01T00:20:55.111Z,2.90
2019-06-01T00:23:21.499Z,3.30
2019-06-01T00:25:49.022Z,3.10
2019-06-01T00:28:15.508Z,2.85
2019-06-01T00:30:41.995Z,3.27
2019-06-01T00:33:08.420Z,3.33
2019-06-01T00:35:34.815Z,3.08
2019-06-01T00:38:01.210Z,3.10
2019-06-01T00:40:29.228Z,3.20
2019-06-01T00:42:55.662Z,3.47
2019-06-01T00:45:22.026Z,2.92
2019-06-01T00:47:48.954Z,3.08
2019-06-01T00:50:15.556Z,3.00
2019-06-01T00:52:42.932Z,3.02
2019-06-01T00:55:09.562Z,3.08
2019-06-01T00:57:35.939Z,3.25
2019-06-01T01:00:04.461Z,2.98
2019-06-01T01:05:16.472Z,2.98
2019-06-01T01:07:42.839Z,3.42
2019-06-01T01:10:11.432Z,3.00
2019-06-01T01:12:56.383Z,2.80
2019-06-01T01:15:22.932Z,3.08
2019-06-01T01:17:49.810Z,3.40
2019-06-01T01:20:16.244Z,3.50
2019-06-01T01:22:42.619Z,3.00
2019-06-01T01:25:09.411Z,3.42
2019-06-01T01:27:35.922Z,3.10
2019-06-01T01:30:04.414Z,3.00
2019-06-01T01:32:31.814Z,3.17
2019-06-01T01:34:58.244Z,3.33
2019-06-01T01:37:24.612Z,3.15
2019-06-01T01:39:52.174Z,3.20
2019-06-01T01:42:18.624Z,3.12
2019-06-01T01:44:45.029Z,3.05
2019-06-01T01:47:14.318Z,2.92
2019-06-01T01:49:39.659Z,2.87
2019-06-01T01:52:06.093Z,3.05
2019-06-01T01:54:32.494Z,2.83
2019-06-01T01:56:58.914Z,3.10
2019-06-01T01:59:25.407Z,3.10
2019-06-01T02:01:52.565Z,3.00
2019-06-01T02:04:18.968Z,2.90
2019-06-01T02:06:45.336Z,3.00
2019-06-01T02:09:11.711Z,3.17
2019-06-01T02:11:38.132Z,3.12
2019-06-01T02:14:05.600Z,3.30
2019-06-01T02:16:31.967Z,3.05
2019-06-01T02:18:58.911Z,3.30
2019-06-01T02:21:25.587Z,3.10
2019-06-01T02:23:52.896Z,3.45
2019-06-01T02:26:19.303Z,3.35
2019-06-01T02:28:45.755Z,2.77
2019-06-01T02:31:13.854Z,3.65
2019-06-01T02:33:40.231Z,3.30
2019-06-01T02:36:06.633Z,3.10
2019-06-01T02:38:33.034Z,3.22
2019-06-01T02:41:01.006Z,3.10
2019-06-01T02:43:27.546Z,3.22
2019-06-01T02:45:54.045Z,3.30
2019-06-01T02:48:20.455Z,3.10
2019-06-01T02:50:46.858Z,3.33
2019-06-01T02:53:13.246Z,3.10
2019-06-01T02:55:39.646Z,3.30
2019-06-01T02:58:06.685Z,3.30
2019-06-01T03:00:46.236Z,3.12
2019-06-01T03:03:13.706Z,3.40
2019-06-01T03:05:40.468Z,3.40
2019-06-01T03:08:07.771Z,3.22
2019-06-01T03:10:36.485Z,3.40
2019-06-01T03:13:04.782Z,3.60
2019-06-01T03:15:31.785Z,3.70
2019-06-01T03:18:01.540Z,3.33
2019-06-01T03:20:30.170Z,3.52
2019-06-01T03:22:57.106Z,3.37
2019-06-01T03:25:27.375Z,3.60
2019-06-01T03:27:56.163Z,3.80
2019-06-01T03:30:45.065Z,3.60
2019-06-01T03:33:10.679Z,3.70
2019-06-01T03:35:37.396Z,3.40
2019-06-01T03:38:04.898Z,3.60
2019-06-01T03:40:31.313Z,3.50
2019-06-01T03:42:57.809Z,3.70
2019-06-01T03:45:24.326Z,3.60
2019-06-01T03:47:50.722Z,3.70
2019-06-01T03:50:17.096Z,3.60
2019-06-01T03:52:43.525Z,3.60
2019-06-01T03:55:10.016Z,3.60
2019-06-01T03:57:36.413Z,3.55
2019-06-01T04:00:07.062Z,3.67
2019-06-01T04:02:33.586Z,3.50
2019-06-01T04:05:01.043Z,3.85
2019-06-01T04:07:27.665Z,3.90
2019-06-01T04:09:55.043Z,3.75
2019-06-01T04:12:22.473Z,3.42
2019-06-01T04:14:48.855Z,3.55
2019-06-01T04:17:15.339Z,3.33
2019-06-01T04:19:41.761Z,3.58
2019-06-01T04:22:12.256Z,3.70
2019-06-01T04:24:38.644Z,3.70
2019-06-01T04:27:06.126Z,3.62
2019-06-01T04:29:32.634Z,3.33
2019-06-01T04:31:59.013Z,3.62
2019-06-01T04:34:25.617Z,3.12
2019-06-01T04:36:52.001Z,3.25
2019-06-01T04:39:18.476Z,3.42
2019-06-01T04:41:44.921Z,3.50
2019-06-01T04:44:12.165Z,3.72
2019-06-01T04:46:38.615Z,3.58
2019-06-01T04:49:05.033Z,3.50
2019-06-01T04:51:31.427Z,3.40
2019-06-01T04:53:57.816Z,3.55
2019-06-01T04:56:24.238Z,3.50
2019-06-01T04:58:50.781Z,3.50
2019-06-01T05:01:17.189Z,3.55
2019-06-01T05:03:43.624Z,3.70
2019-06-01T05:06:11.222Z,3.77
2019-06-01T05:08:37.713Z,3.55
2019-06-01T05:11:05.753Z,3.83
2019-06-01T05:13:32.434Z,4.05
2019-06-01T05:15:58.843Z,3.50
2019-06-01T05:18:25.283Z,3.92
2019-06-01T05:20:51.675Z,3.83
2019-06-01T05:23:18.114Z,3.45
2019-06-01T05:25:44.505Z,3.70
2019-06-01T05:28:11.201Z,3.72
2019-06-01T05:30:37.705Z,3.70
2019-06-01T05:33:04.202Z,3.85
2019-06-01T05:35:32.272Z,3.65
2019-06-01T05:37:58.687Z,3.27
2019-06-01T05:40:25.088Z,3.60
2019-06-01T05:42:51.557Z,3.55
2019-06-01T05:45:19.293Z,3.58
2019-06-01T05:47:45.725Z,3.90
2019-06-01T05:50:12.395Z,3.65
2019-06-01T05:52:38.851Z,3.83
2019-06-01T05:55:06.133Z,3.55
2019-06-01T05:57:32.497Z,3.80
2019-06-01T05:59:58.984Z,4.00
2019-06-01T06:02:25.476Z,4.12
2019-06-01T06:04:54.103Z,4.25
2019-06-01T06:07:21.200Z,4.12
2019-06-01T06:09:47.591Z,4.75
2019-06-01T06:12:15.318Z,4.62
2019-06-01T06:14:41.928Z,4.42
2019-06-01T06:17:08.317Z,4.45
2019-06-01T06:19:34.703Z,4.47
2019-06-01T06:22:01.129Z,4.20
2019-06-01T06:24:27.503Z,4.00
2019-06-01T06:26:53.891Z,4.00
2019-06-01T06:29:20.935Z,4.55
2019-06-01T06:31:47.454Z,4.03
2019-06-01T06:34:13.848Z,4.50
2019-06-01T06:36:40.363Z,4.08
2019-06-01T06:39:06.851Z,4.12
2019-06-01T06:41:33.251Z,3.98
2019-06-01T06:43:59.675Z,4.03
2019-06-01T06:46:26.051Z,3.85
2019-06-01T06:48:52.549Z,3.75
2019-06-01T06:51:19.307Z,4.87
2019-06-01T06:53:45.759Z,4.30
2019-06-01T06:56:12.144Z,4.30
2019-06-01T06:58:38.695Z,4.30
2019-06-01T07:01:05.124Z,4.08
2019-06-01T07:03:31.532Z,4.40
2019-06-01T07:05:57.958Z,4.40
2019-06-01T07:08:24.348Z,3.85
2019-06-01T07:10:50.725Z,4.08
2019-06-01T07:13:17.167Z,3.70
2019-06-01T07:15:43.558Z,3.98
2019-06-01T07:18:10.029Z,3.70
2019-06-01T07:20:36.473Z,4.00
2019-06-01T07:23:02.948Z,3.75
2019-06-01T07:25:29.343Z,3.75
2019-06-01T07:27:55.762Z,3.60
2019-06-01T07:30:22.276Z,3.30
2019-06-01T07:32:48.718Z,3.70
2019-06-01T07:35:15.284Z,3.37
2019-06-01T07:37:41.706Z,3.40
2019-06-01T07:40:13.205Z,3.50
2019-06-01T07:42:36.465Z,3.27
2019-06-01T07:45:04.400Z,3.12
2019-06-01T07:47:30.808Z,3.27
2019-06-01T07:49:57.296Z,3.17
2019-06-01T07:52:24.228Z,3.40
2019-06-01T07:54:51.083Z,3.17
2019-06-01T07:57:17.520Z,3.17
2019-06-01T07:59:43.904Z,2.95
2019-06-01T08:02:10.450Z,2.90
2019-06-01T08:04:52.508Z,3.00
2019-06-01T08:07:05.424Z,2.98
2019-06-01T08:09:31.906Z,3.00
2019-06-01T08:11:58.333Z,2.80
2019-06-01T08:14:24.780Z,2.85
2019-06-01T08:16:51.170Z,3.00
2019-06-01T08:19:17.548Z,2.90
2019-06-01T08:21:43.945Z,2.95
2019-06-01T08:24:10.442Z,2.72
2019-06-01T08:26:36.804Z,3.02
2019-06-01T08:29:03.381Z,2.87
2019-06-01T08:31:31.833Z,2.90
2019-06-01T08:33:58.100Z,2.72
2019-06-01T08:36:25.224Z,2.55
2019-06-01T08:38:51.815Z,2.85
2019-06-01T08:41:18.308Z,2.60
2019-06-01T08:43:44.759Z,2.80
2019-06-01T08:46:11.329Z,2.50
2019-06-01T08:48:38.815Z,2.50
2019-06-01T08:51:05.248Z,2.40
2019-06-01T08:53:32.176Z,2.60
2019-06-01T08:55:58.617Z,2.50
2019-06-01T08:58:26.139Z,2.30
2019-06-01T09:00:52.636Z,2.42
2019-06-01T09:03:19.102Z,2.52
2019-06-01T09:05:45.634Z,2.20
2019-06-01T09:08:11.994Z,2.35
2019-06-01T09:10:38.476Z,2.37
2019-06-01T09:13:04.894Z,2.50
2019-06-01T09:15:31.511Z,2.52
2019-06-01T09:17:57.984Z,2.37
2019-06-01T09:20:25.476Z,2.67
2019-06-01T09:22:51.968Z,2.15
2019-06-01T09:25:18.424Z,2.50
2019-06-01T09:27:44.838Z,2.25
2019-06-01T09:30:11.525Z,2.30
2019-06-01T09:32:37.907Z,2.17
2019-06-01T09:35:05.021Z,2.15
2019-06-01T09:37:32.528Z,2.25
2019-06-01T09:39:59.053Z,2.25
2019-06-01T09:42:26.699Z,2.10
2019-06-01T09:44:53.102Z,2.20
2019-06-01T09:47:19.432Z,2.05
2019-06-01T09:49:45.870Z,2.20
2019-06-01T09:52:12.960Z,2.00
2019-06-01T09:54:39.649Z,2.00
2019-06-01T09:57:06.066Z,1.92
2019-06-01T09:59:32.442Z,1.80
2019-06-01T10:01:59.029Z,2.20
2019-06-01T10:04:25.527Z,2.10
2019-06-01T10:06:52.908Z,2.08
2019-06-01T10:09:19.463Z,2.30
2019-06-01T10:11:45.879Z,2.10
2019-06-01T10:14:12.274Z,2.33
2019-06-01T10:16:39.064Z,2.08
2019-06-01T10:19:05.476Z,2.10
2019-06-01T10:21:32.069Z,1.95
2019-06-01T10:23:58.479Z,2.30
2019-06-01T10:26:26.561Z,2.20
2019-06-01T10:28:53.046Z,2.20
2019-06-01T10:31:19.472Z,2.27
2019-06-01T10:33:45.889Z,1.90
2019-06-01T10:36:20.813Z,1.92
2019-06-01T10:38:41.486Z,1.80
2019-06-01T10:41:07.920Z,2.20
2019-06-01T10:43:35.542Z,2.30
2019-06-01T10:46:02.219Z,2.15
2019-06-01T10:48:28.637Z,2.25
2019-06-01T10:50:55.063Z,2.55
2019-06-01T10:53:21.444Z,2.60
2019-06-01T10:55:47.830Z,2.42
2019-06-01T10:58:14.258Z,2.20
2019-06-01T11:00:46.708Z,2.27
2019-06-01T11:03:08.876Z,2.33
2019-06-01T11:05:36.640Z,2.20
2019-06-01T11:08:03.351Z,2.20
2019-06-01T11:10:29.832Z,2.10
2019-06-01T11:12:56.238Z,2.10
2019-06-01T11:15:22.794Z,2.10
2019-06-01T11:17:49.194Z,2.12
2019-06-01T11:20:17.412Z,2.25
2019-06-01T11:22:43.823Z,2.10
2019-06-01T11:25:10.495Z,1.95
2019-06-01T11:27:37.758Z,1.92
2019-06-01T11:30:06.816Z,2.20
2019-06-01T11:32:33.688Z,2.10
2019-06-01T11:35:00.208Z,1.67
2019-06-01T11:37:26.622Z,1.98
2019-06-01T11:39:53.061Z,1.70
2019-06-01T11:42:20.471Z,2.00
2019-06-01T11:44:46.911Z,1.90
2019-06-01T11:47:13.362Z,2.12
2019-06-01T11:49:40.815Z,1.90
2019-06-01T11:52:08.312Z,1.82
2019-06-01T11:54:35.080Z,2.17
2019-06-01T11:57:01.475Z,1.90
2019-06-01T11:59:27.883Z,1.98
2019-06-01T12:01:54.303Z,2.00
2019-06-01T12:04:21.718Z,2.10
2019-06-01T12:06:48.088Z,2.30
2019-06-01T12:09:14.584Z,2.15
2019-06-01T12:11:42.068Z,2.20
2019-06-01T12:14:08.650Z,2.05
2019-06-01T12:16:36.330Z,1.98
2019-06-01T12:19:03.084Z,2.20
2019-06-01T12:21:29.476Z,2.10
2019-06-01T12:23:56.040Z,2.08
2019-06-01T12:26:22.490Z,1.77
2019-06-01T12:28:48.970Z,1.95
2019-06-01T12:31:15.510Z,2.00
2019-06-01T12:33:42.043Z,1.80
2019-06-01T12:36:08.405Z,1.85
2019-06-01T12:38:37.848Z,1.80
2019-06-01T12:43:30.630Z,1.90
2019-06-01T12:46:07.408Z,1.90
2019-06-01T12:48:26.387Z,1.67
2019-06-01T12:50:52.852Z,1.95
2019-06-01T12:53:19.244Z,1.95
2019-06-01T12:55:46.675Z,2.08
2019-06-01T12:58:13.181Z,1.90
2019-06-01T13:00:40.376Z,1.70
2019-06-01T13:03:07.927Z,1.75
2019-06-01T13:05:34.565Z,1.70
2019-06-01T13:08:02.933Z,1.75
2019-06-01T13:10:29.211Z,1.90
2019-06-01T13:12:55.608Z,1.80
2019-06-01T13:15:22.173Z,1.77
2019-06-01T13:17:49.454Z,1.92
2019-06-01T13:20:16.180Z,2.10
2019-06-01T13:22:43.527Z,2.00
2019-06-01T13:25:10.937Z,2.00
2019-06-01T13:27:40.668Z,1.90
2019-06-01T13:30:06.659Z,2.00
2019-06-01T13:32:33.199Z,1.80
2019-06-01T13:34:59.609Z,1.72
2019-06-01T13:37:26.175Z,1.90
2019-06-01T13:39:57.589Z,1.70
2019-06-01T13:42:20.821Z,1.92
2019-06-01T13:44:47.430Z,1.60
2019-06-01T13:47:14.145Z,1.82
2019-06-01T13:49:40.520Z,1.77
2019-06-01T13:52:06.941Z,1.87
2019-06-01T13:54:33.457Z,1.72
2019-06-01T13:56:59.851Z,1.75
2019-06-01T13:59:26.430Z,1.60
2019-06-01T14:01:53.228Z,1.92
2019-06-01T14:04:19.635Z,1.80
2019-06-01T14:06:47.098Z,1.70
2019-06-01T14:09:13.448Z,1.90
2019-06-01T14:11:39.867Z,1.80
2019-06-01T14:14:06.410Z,1.85
2019-06-01T14:16:32.927Z,1.57
2019-06-01T14:18:59.584Z,1.87
2019-06-01T14:21:26.040Z,1.75
2019-06-01T14:23:52.486Z,1.77
2019-06-01T14:26:18.878Z,1.90
2019-06-01T14:28:46.063Z,1.90
2019-06-01T14:31:12.602Z,1.70
2019-06-01T14:33:38.995Z,1.72
2019-06-01T14:36:05.416Z,1.70
2019-06-01T14:38:46.051Z,1.60
2019-06-01T14:41:00.175Z,1.77
2019-06-01T14:43:26.595Z,1.70
2019-06-01T14:45:54.188Z,1.50
2019-06-01T14:48:20.717Z,1.80
2019-06-01T14:50:47.511Z,1.70
2019-06-01T14:53:13.976Z,1.80
2019-06-01T14:55:40.362Z,1.65
2019-06-01T14:58:06.770Z,1.62
2019-06-01T15:00:33.260Z,1.85
2019-06-01T15:03:00.948Z,1.80
2019-06-01T15:05:27.390Z,1.80
2019-06-01T15:07:54.308Z,1.52
2019-06-01T15:10:21.146Z,1.90
2019-06-01T15:12:53.033Z,1.70
2019-06-01T15:15:16.234Z,1.60
2019-06-01T15:17:42.669Z,1.60
2019-06-01T15:20:09.507Z,1.90
2019-06-01T15:22:36.004Z,1.70
2019-06-01T15:25:08.395Z,1.70
2019-06-01T15:27:35.948Z,1.80
2019-06-01T15:30:06.566Z,1.70
2019-06-01T15:32:33.111Z,1.65
2019-06-01T15:35:00.014Z,1.52
2019-06-01T15:37:26.439Z,1.80
2019-06-01T15:39:54.640Z,1.75
2019-06-01T15:42:21.167Z,1.87
2019-06-01T15:44:48.596Z,1.60
2019-06-01T15:47:14.974Z,1.90
2019-06-01T15:49:41.681Z,1.80
2019-06-01T15:52:08.052Z,1.75
2019-06-01T15:54:34.469Z,1.75
2019-06-01T15:57:00.986Z,1.80
2019-06-01T15:59:27.571Z,1.70
2019-06-01T16:01:54.973Z,1.70
2019-06-01T16:04:21.566Z,1.77
2019-06-01T16:06:47.943Z,1.85
2019-06-01T16:09:14.460Z,1.77
2019-06-01T16:11:40.835Z,1.80
2019-06-01T16:14:07.329Z,1.72
2019-06-01T16:16:33.775Z,1.80
2019-06-01T16:19:04.873Z,1.80
2019-06-01T16:21:30.160Z,1.72
2019-06-01T16:23:56.538Z,1.70
2019-06-01T16:26:22.949Z,1.85
2019-06-01T16:28:49.398Z,2.20
2019-06-01T16:31:15.835Z,1.72
2019-06-01T16:33:42.309Z,1.90
2019-06-01T16:36:08.809Z,2.02
2019-06-01T16:38:35.195Z,1.72
2019-06-01T16:41:01.595Z,2.02
2019-06-01T16:43:28.039Z,1.80
2019-06-01T16:45:55.587Z,1.77
2019-06-01T16:48:22.031Z,1.90
2019-06-01T16:50:48.631Z,1.92
2019-06-01T16:53:15.060Z,2.05
2019-06-01T16:55:41.811Z,1.80
2019-06-01T16:58:08.332Z,1.95
2019-06-01T17:00:36.715Z,1.70
2019-06-01T17:03:03.185Z,2.02
2019-06-01T17:05:29.874Z,1.80
2019-06-01T17:07:56.647Z,1.90
2019-06-01T17:10:26.400Z,1.60
2019-06-01T17:12:51.823Z,1.80
2019-06-01T17:15:18.501Z,2.00
2019-06-01T17:17:45.035Z,1.95
2019-06-01T17:20:40.377Z,1.82
2019-06-01T17:23:24.466Z,1.60
2019-06-01T17:25:35.902Z,1.92
2019-06-01T17:28:03.161Z,1.82
2019-06-01T17:30:29.660Z,1.75
2019-06-01T17:32:56.064Z,1.75
2019-06-01T17:35:22.567Z,2.00
2019-06-01T17:37:48.943Z,1.80
2019-06-01T17:40:15.555Z,1.60
2019-06-01T17:42:42.087Z,1.75
2019-06-01T17:45:09.648Z,1.90
2019-06-01T17:47:36.169Z,1.82
2019-06-01T17:50:05.457Z,1.80
2019-06-01T17:54:58.322Z,1.67
2019-06-01T17:57:25.251Z,1.77
2019-06-01T17:59:51.791Z,2.00
2019-06-01T18:02:18.203Z,1.82
2019-06-01T18:04:44.636Z,1.87
2019-06-01T18:07:12.063Z,2.20
2019-06-01T18:09:38.751Z,2.10
2019-06-01T18:12:06.077Z,1.90
2019-06-01T18:14:32.536Z,1.90
2019-06-01T18:16:58.951Z,1.90
2019-06-01T18:19:25.331Z,1.92
2019-06-01T18:21:51.853Z,1.77
2019-06-01T18:24:18.297Z,1.85
2019-06-01T18:26:44.720Z,1.72
2019-06-01T18:29:11.126Z,1.82
2019-06-01T18:31:37.549Z,1.70
2019-06-01T18:34:05.380Z,2.00
2019-06-01T18:36:32.045Z,1.67
2019-06-01T18:38:58.548Z,1.70
2019-06-01T18:41:24.924Z,1.80
2019-06-01T18:43:51.561Z,1.82
2019-06-01T18:46:18.137Z,1.90
2019-06-01T18:48:45.170Z,1.70
2019-06-01T18:51:12.335Z,1.90
2019-06-01T18:53:39.146Z,1.92
2019-06-01T18:56:06.065Z,1.70
2019-06-01T18:58:32.722Z,1.85
2019-06-01T19:00:59.280Z,1.70
2019-06-01T19:03:28.532Z,1.77
2019-06-01T19:05:54.815Z,1.95
2019-06-01T19:08:21.635Z,1.70
2019-06-01T19:10:48.924Z,2.00
2019-06-01T19:13:21.124Z,1.80
2019-06-01T19:15:47.671Z,1.80
2019-06-01T19:18:14.614Z,1.75
2019-06-01T19:20:41.155Z,1.70
2019-06-01T19:23:08.714Z,1.75
2019-06-01T19:25:35.795Z,1.92
2019-06-01T19:28:02.554Z,1.70
2019-06-01T19:30:38.790Z,2.08
2019-06-01T19:33:06.780Z,1.72
2019-06-01T19:35:33.395Z,1.55
2019-06-01T19:38:00.167Z,1.72
2019-06-01T19:40:32.366Z,1.80
2019-06-01T19:43:00.669Z,2.12
2019-06-01T19:45:29.504Z,1.80
2019-06-01T19:47:55.570Z,1.87
2019-06-01T19:50:21.967Z,1.67
2019-06-01T19:52:48.357Z,1.80
2019-06-01T19:55:16.948Z,1.70
2019-06-01T19:57:43.491Z,2.02
2019-06-01T20:00:12.046Z,1.90
2019-06-01T20:02:38.741Z,2.00
2019-06-01T20:05:05.444Z,1.95
2019-06-01T20:07:32.121Z,1.82
2019-06-01T20:10:00.210Z,1.80
2019-06-01T20:12:28.927Z,2.12
2019-06-01T20:14:55.455Z,1.90
2019-06-01T20:17:26.096Z,2.00
2019-06-01T20:19:50.372Z,2.00
2019-06-01T20:22:17.122Z,1.82
2019-06-01T20:24:43.558Z,2.00
2019-06-01T20:27:11.306Z,1.90
2019-06-01T20:29:37.831Z,1.90
2019-06-01T20:32:04.396Z,1.92
2019-06-01T20:34:30.997Z,2.00
2019-06-01T20:36:58.019Z,2.10
2019-06-01T20:39:24.908Z,2.02
2019-06-01T20:41:51.368Z,2.00
2019-06-01T20:44:18.834Z,1.77
2019-06-01T20:46:45.301Z,1.80
2019-06-01T20:49:14.502Z,1.90
2019-06-01T20:51:41.285Z,2.10
2019-06-01T20:54:07.910Z,2.22
2019-06-01T20:56:34.321Z,2.00
2019-06-01T20:59:00.712Z,2.10
2019-06-01T21:01:27.123Z,2.10
2019-06-01T21:03:53.554Z,1.90
2019-06-01T21:06:20.833Z,1.92
2019-06-01T21:08:48.197Z,2.20
2019-06-01T21:11:15.862Z,2.00
2019-06-01T21:13:42.563Z,2.00
2019-06-01T21:16:09.114Z,2.22
2019-06-01T21:18:35.524Z,2.25
2019-06-01T21:21:01.929Z,2.00
2019-06-01T21:23:28.314Z,1.95
2019-06-01T21:25:54.752Z,2.25
2019-06-01T21:28:22.472Z,1.95
2019-06-01T21:30:49.335Z,1.95
2019-06-01T21:33:16.912Z,2.20
2019-06-01T21:35:43.328Z,2.00
2019-06-01T21:38:09.952Z,1.82
2019-06-01T21:40:36.446Z,2.30
2019-06-01T21:43:22.526Z,1.98
2019-06-01T21:45:31.418Z,2.00
2019-06-01T21:47:57.985Z,1.90
2019-06-01T21:50:24.389Z,2.27
2019-06-01T21:52:50.777Z,2.10
2019-06-01T21:55:18.081Z,1.70
2019-06-01T21:57:44.527Z,2.02
2019-06-01T22:00:16.482Z,1.90
2019-06-01T22:02:44.784Z,1.87
2019-06-01T22:05:11.592Z,2.10
2019-06-01T22:07:38.211Z,2.02
2019-06-01T22:10:05.292Z,2.10
2019-06-01T22:12:31.700Z,2.00
2019-06-01T22:14:58.185Z,2.17
2019-06-01T22:17:25.745Z,1.70
2019-06-01T22:19:52.236Z,1.72
2019-06-01T22:22:19.601Z,1.90
2019-06-01T22:24:46.044Z,1.77
2019-06-01T22:27:13.433Z,1.90
2019-06-01T22:29:39.859Z,1.90
2019-06-01T22:32:06.263Z,2.00
2019-06-01T22:34:32.654Z,2.00
2019-06-01T22:36:59.476Z,1.90
2019-06-01T22:39:26.960Z,1.70
2019-06-01T22:41:53.360Z,1.90
2019-06-01T22:44:20.077Z,1.75
2019-06-01T22:46:46.576Z,1.87
2019-06-01T22:49:13.062Z,1.82
2019-06-01T22:51:39.445Z,2.00
2019-06-01T22:54:05.814Z,1.80
2019-06-01T22:56:33.843Z,1.90
2019-06-01T22:59:00.351Z,1.90
2019-06-01T23:01:26.854Z,1.80
2019-06-01T23:03:53.454Z,1.90
2019-06-01T23:06:20.940Z,1.87
2019-06-01T23:08:47.332Z,1.85
2019-06-01T23:11:13.755Z,1.90
2019-06-01T23:13:52.669Z,2.08
2019-06-01T23:16:08.463Z,1.87
2019-06-01T23:18:35.004Z,1.80
2019-06-01T23:21:01.572Z,1.75
2019-06-01T23:23:28.168Z,2.00
2019-06-01T23:25:54.575Z,2.10
2019-06-01T23:28:21.966Z,1.87
2019-06-01T23:30:48.348Z,2.00
2019-06-01T23:33:14.783Z,1.90
2019-06-01T23:35:42.168Z,1.92
2019-06-01T23:38:08.523Z,1.92
2019-06-01T23:40:35.167Z,1.82
2019-06-01T23:43:04.226Z,1.72
2019-06-01T23:45:30.937Z,1.77
2019-06-01T23:47:57.297Z,1.90
2019-06-01T23:50:24.977Z,1.80
2019-06-01T23:52:52.389Z,1.93
2019-06-01T23:55:18.800Z,1.90
2019-06-01T23:57:45.359Z,1.70
